createdAt,value
2023-01-10T00:00:30.118Z,948.22
2023-01-10T00:01:29.960Z,948.29
2023-01-10T00:02:30.056Z,948.32
2023-01-10T00:03:29.952Z,948.31
2023-01-10T00:04:30.046Z,948.24
2023-01-10T00:05:29.928Z,948.30
2023-01-10T00:06:29.894Z,948.27
2023-01-10T00:07:29.883Z,948.31
2023-01-10T00:08:29.883Z,948.35
2023-01-10T00:09:29.860Z,948.33
2023-01-10T00:10:29.835Z,948.33
2023-01-10T00:11:29.842Z,948.36
2023-01-10T00:12:29.816Z,948.43
2023-01-10T00:13:29.828Z,948.34
2023-01-10T00:14:29.781Z,948.39
2023-01-10T00:15:29.777Z,948.45
2023-01-10T00:16:29.756Z,948.47
2023-01-10T00:17:29.819Z,948.49
2023-01-10T00:18:29.757Z,948.58
2023-01-10T00:19:29.720Z,948.56
2023-01-10T00:20:29.693Z,948.48
2023-01-10T00:21:29.713Z,948.46
2023-01-10T00:22:29.720Z,948.51
2023-01-10T00:23:29.698Z,948.53
2023-01-10T00:24:29.657Z,948.55
2023-01-10T00:25:29.650Z,948.46
2023-01-10T00:26:29.625Z,948.44
2023-01-10T00:27:29.752Z,948.45
2023-01-10T00:28:29.590Z,948.48
2023-01-10T00:29:29.602Z,948.51
2023-01-10T00:30:29.571Z,948.49
2023-01-10T00:31:29.647Z,948.53
2023-01-10T00:32:29.576Z,948.47
2023-01-10T00:33:29.546Z,948.54
2023-01-10T00:34:29.513Z,948.55
2023-01-10T00:35:29.539Z,948.51
2023-01-10T00:36:29.489Z,948.55
2023-01-10T00:37:29.502Z,948.54
2023-01-10T00:38:29.462Z,948.48
2023-01-10T00:39:29.467Z,948.46
2023-01-10T00:40:29.483Z,948.50
2023-01-10T00:41:29.438Z,948.57
2023-01-10T00:42:29.402Z,948.66
2023-01-10T00:43:29.412Z,948.60
2023-01-10T00:44:29.395Z,948.62
2023-01-10T00:45:29.401Z,948.67
2023-01-10T00:46:29.381Z,948.72
2023-01-10T00:47:29.349Z,948.69
2023-01-10T00:48:29.334Z,948.66
2023-01-10T00:49:29.359Z,948.69
2023-01-10T00:50:29.322Z,948.70
2023-01-10T00:51:29.330Z,948.74
2023-01-10T00:52:29.289Z,948.79
2023-01-10T00:53:29.279Z,948.81
2023-01-10T00:54:29.278Z,948.81
2023-01-10T00:55:29.255Z,948.84
2023-01-10T00:56:29.245Z,948.85
2023-01-10T00:57:29.215Z,948.91
2023-01-10T00:58:29.228Z,948.97
2023-01-10T00:59:29.198Z,948.97
2023-01-10T01:00:29.182Z,948.94
2023-01-10T01:01:29.284Z,948.91
2023-01-10T01:02:29.267Z,948.92
2023-01-10T01:03:29.143Z,948.82
2023-01-10T01:04:29.137Z,948.92
2023-01-10T01:05:29.124Z,948.98
2023-01-10T01:06:29.120Z,949.02
2023-01-10T01:07:29.101Z,949.06
2023-01-10T01:08:29.067Z,949.02
2023-01-10T01:09:29.078Z,949.12
2023-01-10T01:10:29.081Z,949.21
2023-01-10T01:11:29.055Z,949.21
2023-01-10T01:12:29.013Z,949.13
2023-01-10T01:13:29.018Z,949.10
2023-01-10T01:14:28.993Z,949.22
2023-01-10T01:15:29.141Z,949.24
2023-01-10T01:16:28.961Z,949.24
2023-01-10T01:17:28.953Z,949.21
2023-01-10T01:18:28.958Z,949.23
2023-01-10T01:19:28.961Z,949.29
2023-01-10T01:20:28.912Z,949.38
2023-01-10T01:21:28.901Z,949.41
2023-01-10T01:22:28.876Z,949.40
2023-01-10T01:23:28.873Z,949.40
2023-01-10T01:24:28.873Z,949.44
2023-01-10T01:25:28.864Z,949.46
2023-01-10T01:26:28.872Z,949.48
2023-01-10T01:27:28.829Z,949.50
2023-01-10T01:28:28.812Z,949.52
2023-01-10T01:29:42.285Z,949.55
2023-01-10T01:30:28.777Z,949.56
2023-01-10T01:31:28.868Z,949.58
2023-01-10T01:32:28.745Z,949.58
2023-01-10T01:33:28.738Z,949.59
2023-01-10T01:34:28.727Z,949.58
2023-01-10T01:35:28.737Z,949.55
2023-01-10T01:36:28.691Z,949.69
2023-01-10T01:37:28.720Z,949.70
2023-01-10T01:38:28.673Z,949.71
2023-01-10T01:39:28.694Z,949.69
2023-01-10T01:40:28.648Z,949.63
2023-01-10T01:41:28.643Z,949.72
2023-01-10T01:42:28.638Z,949.74
2023-01-10T01:43:28.640Z,949.73
2023-01-10T01:44:28.626Z,949.77
2023-01-10T01:45:28.586Z,949.64
2023-01-10T01:46:28.606Z,949.65
2023-01-10T01:47:28.563Z,949.73
2023-01-10T01:48:28.553Z,949.75
2023-01-10T01:49:28.556Z,949.80
2023-01-10T01:50:28.504Z,949.80
2023-01-10T01:51:28.567Z,949.82
2023-01-10T01:52:28.485Z,949.88
2023-01-10T01:53:28.516Z,949.91
2023-01-10T01:54:28.454Z,949.92
2023-01-10T01:55:28.530Z,949.93
2023-01-10T01:56:28.467Z,949.96
2023-01-10T01:57:28.426Z,950.01
2023-01-10T01:58:28.427Z,950.01
2023-01-10T01:59:28.429Z,949.94
2023-01-10T02:00:28.372Z,949.85
2023-01-10T02:01:28.501Z,949.79
2023-01-10T02:02:28.408Z,949.97
2023-01-10T02:03:28.456Z,949.94
2023-01-10T02:04:28.360Z,949.93
2023-01-10T02:05:28.363Z,949.97
2023-01-10T02:06:28.305Z,949.98
2023-01-10T02:07:28.288Z,949.97
2023-01-10T02:08:28.278Z,949.97
2023-01-10T02:09:28.276Z,949.96
2023-01-10T02:10:28.357Z,949.99
2023-01-10T02:11:28.239Z,950.03
2023-01-10T02:12:28.222Z,950.03
2023-01-10T02:13:28.212Z,950.07
2023-01-10T02:14:28.190Z,950.05
2023-01-10T02:15:28.227Z,950.02
2023-01-10T02:16:28.170Z,950.05
2023-01-10T02:17:28.155Z,949.98
2023-01-10T02:18:28.139Z,949.97
2023-01-10T02:19:28.162Z,950.03
2023-01-10T02:20:28.106Z,950.05
2023-01-10T02:21:28.112Z,950.05
2023-01-10T02:22:28.081Z,950.02
2023-01-10T02:23:28.118Z,950.05
2023-01-10T02:24:28.073Z,950.01
2023-01-10T02:25:28.082Z,949.96
2023-01-10T02:26:28.073Z,950.00
2023-01-10T02:27:28.052Z,950.03
2023-01-10T02:28:28.049Z,950.05
2023-01-10T02:29:28.027Z,950.07
2023-01-10T02:30:28.007Z,950.09
2023-01-10T02:31:28.052Z,950.13
2023-01-10T02:32:42.164Z,950.10
2023-01-10T02:33:27.992Z,950.09
2023-01-10T02:34:27.938Z,950.10
2023-01-10T02:35:27.940Z,950.09
2023-01-10T02:36:27.900Z,950.06
2023-01-10T02:37:27.923Z,950.08
2023-01-10T02:38:27.884Z,950.12
2023-01-10T02:39:27.895Z,950.13
2023-01-10T02:40:27.852Z,950.18
2023-01-10T02:41:27.852Z,950.21
2023-01-10T02:42:27.824Z,950.25
2023-01-10T02:43:27.867Z,950.26
2023-01-10T02:44:27.811Z,950.32
2023-01-10T02:45:27.784Z,950.36
2023-01-10T02:46:27.907Z,950.43
2023-01-10T02:47:27.795Z,950.40
2023-01-10T02:48:27.768Z,950.35
2023-01-10T02:49:27.745Z,950.42
2023-01-10T02:50:27.760Z,950.45
2023-01-10T02:51:27.744Z,950.45
2023-01-10T02:52:27.701Z,950.43
2023-01-10T02:53:27.691Z,950.36
2023-01-10T02:54:27.675Z,950.34
2023-01-10T02:55:27.667Z,950.36
2023-01-10T02:56:27.679Z,950.34
2023-01-10T02:57:27.647Z,950.36
2023-01-10T02:58:27.613Z,950.40
2023-01-10T02:59:27.627Z,950.46
2023-01-10T03:00:27.585Z,950.50
2023-01-10T03:01:27.713Z,950.45
2023-01-10T03:02:27.588Z,950.43
2023-01-10T03:03:27.579Z,950.49
2023-01-10T03:04:27.574Z,950.55
2023-01-10T03:05:27.550Z,950.55
2023-01-10T03:06:27.537Z,950.55
2023-01-10T03:07:27.523Z,950.62
2023-01-10T03:08:27.487Z,950.70
2023-01-10T03:09:27.484Z,950.76
2023-01-10T03:10:27.449Z,950.77
2023-01-10T03:11:27.469Z,950.81
2023-01-10T03:12:27.429Z,950.80
2023-01-10T03:13:27.453Z,950.77
2023-01-10T03:14:27.398Z,950.77
2023-01-10T03:15:27.391Z,950.75
2023-01-10T03:16:27.538Z,950.79
2023-01-10T03:17:27.382Z,950.77
2023-01-10T03:18:27.382Z,950.76
2023-01-10T03:19:27.339Z,950.76
2023-01-10T03:20:27.348Z,950.75
2023-01-10T03:21:27.372Z,950.73
2023-01-10T03:22:27.321Z,950.72
2023-01-10T03:23:27.289Z,950.78
2023-01-10T03:24:27.269Z,950.80
2023-01-10T03:25:27.263Z,950.83
2023-01-10T03:26:27.245Z,950.88
2023-01-10T03:27:27.259Z,950.87
2023-01-10T03:28:27.221Z,950.86
2023-01-10T03:29:27.213Z,950.82
2023-01-10T03:30:27.193Z,950.84
2023-01-10T03:31:27.231Z,950.83
2023-01-10T03:32:27.186Z,950.88
2023-01-10T03:33:27.171Z,950.90
2023-01-10T03:34:27.147Z,950.95
2023-01-10T03:35:27.140Z,951.02
2023-01-10T03:36:27.117Z,951.00
2023-01-10T03:37:27.125Z,951.00
2023-01-10T03:38:27.111Z,951.06
2023-01-10T03:39:27.104Z,951.14
2023-01-10T03:40:27.058Z,951.12
2023-01-10T03:41:27.056Z,951.15
2023-01-10T03:42:27.023Z,951.24
2023-01-10T03:43:27.055Z,951.22
2023-01-10T03:44:27.022Z,951.24
2023-01-10T03:45:27.015Z,951.21
2023-01-10T03:46:27.055Z,951.23
2023-01-10T03:47:26.974Z,951.29
2023-01-10T03:48:26.967Z,951.32
2023-01-10T03:49:26.987Z,951.38
2023-01-10T03:50:26.949Z,951.37
2023-01-10T03:51:26.925Z,951.42
2023-01-10T03:52:26.934Z,951.36
2023-01-10T03:53:26.932Z,951.34
2023-01-10T03:54:26.929Z,951.35
2023-01-10T03:55:26.881Z,951.35
2023-01-10T03:56:26.863Z,951.40
2023-01-10T03:57:26.860Z,951.42
2023-01-10T03:58:26.834Z,951.42
2023-01-10T03:59:26.851Z,951.50
2023-01-10T04:00:26.800Z,951.49
2023-01-10T04:01:26.877Z,951.43
2023-01-10T04:02:26.760Z,951.44
2023-01-10T04:03:26.763Z,951.52
2023-01-10T04:04:26.770Z,951.56
2023-01-10T04:05:26.757Z,951.59
2023-01-10T04:06:26.715Z,951.61
2023-01-10T04:07:26.732Z,951.67
2023-01-10T04:08:26.703Z,951.66
2023-01-10T04:09:26.681Z,951.60
2023-01-10T04:10:26.666Z,951.62
2023-01-10T04:11:26.648Z,951.68
2023-01-10T04:12:26.686Z,951.64
2023-01-10T04:13:26.619Z,951.72
2023-01-10T04:14:26.627Z,951.64
2023-01-10T04:15:26.600Z,951.69
2023-01-10T04:16:26.619Z,951.79
2023-01-10T04:17:26.589Z,951.82
2023-01-10T04:18:26.567Z,951.86
2023-01-10T04:19:26.573Z,951.84
2023-01-10T04:20:26.601Z,951.84
2023-01-10T04:21:26.514Z,951.84
2023-01-10T04:22:26.534Z,951.79
2023-01-10T04:23:26.485Z,951.86
2023-01-10T04:24:26.489Z,951.95
2023-01-10T04:25:26.489Z,952.00
2023-01-10T04:26:26.463Z,952.02
2023-01-10T04:27:26.445Z,952.05
2023-01-10T04:28:26.485Z,952.08
2023-01-10T04:29:26.416Z,952.10
2023-01-10T04:30:26.441Z,952.11
2023-01-10T04:31:26.451Z,952.22
2023-01-10T04:32:26.381Z,952.22
2023-01-10T04:33:26.352Z,952.23
2023-01-10T04:34:26.353Z,952.26
2023-01-10T04:35:26.355Z,952.26
2023-01-10T04:36:26.337Z,952.38
2023-01-10T04:37:26.317Z,952.43
2023-01-10T04:38:26.358Z,952.45
2023-01-10T04:39:26.280Z,952.43
2023-01-10T04:40:26.305Z,952.43
2023-01-10T04:41:26.253Z,952.41
2023-01-10T04:42:26.264Z,952.52
2023-01-10T04:43:26.257Z,952.50
2023-01-10T04:44:26.251Z,952.54
2023-01-10T04:45:26.262Z,952.61
2023-01-10T04:46:26.220Z,952.58
2023-01-10T04:47:26.179Z,952.55
2023-01-10T04:48:26.229Z,952.54
2023-01-10T04:49:26.182Z,952.56
2023-01-10T04:50:26.139Z,952.58
2023-01-10T04:51:26.128Z,952.55
2023-01-10T04:52:26.160Z,952.51
2023-01-10T04:53:26.088Z,952.60
2023-01-10T04:54:26.153Z,952.61
2023-01-10T04:55:26.071Z,952.59
2023-01-10T04:56:26.077Z,952.60
2023-01-10T04:57:26.054Z,952.71
2023-01-10T04:58:26.040Z,952.69
2023-01-10T04:59:26.043Z,952.69
2023-01-10T05:00:26.011Z,952.74
2023-01-10T05:01:26.168Z,952.68
2023-01-10T05:02:26.119Z,952.73
2023-01-10T05:03:25.990Z,952.77
2023-01-10T05:04:25.969Z,952.74
2023-01-10T05:05:25.936Z,952.80
2023-01-10T05:06:25.943Z,952.79
2023-01-10T05:07:25.914Z,952.81
2023-01-10T05:08:25.980Z,952.83
2023-01-10T05:09:25.901Z,952.80
2023-01-10T05:10:25.888Z,952.89
2023-01-10T05:11:25.887Z,952.88
2023-01-10T05:12:25.853Z,952.91
2023-01-10T05:13:25.825Z,952.91
2023-01-10T05:14:25.832Z,952.94
2023-01-10T05:15:25.808Z,952.98
2023-01-10T05:16:25.859Z,952.96
2023-01-10T05:17:25.787Z,952.98
2023-01-10T05:18:25.774Z,953.03
2023-01-10T05:19:25.747Z,953.02
2023-01-10T05:20:25.802Z,953.03
2023-01-10T05:21:25.726Z,953.00
2023-01-10T05:22:25.725Z,953.01
2023-01-10T05:23:25.700Z,953.05
2023-01-10T05:24:25.710Z,953.01
2023-01-10T05:25:25.694Z,953.09
2023-01-10T05:26:25.669Z,953.07
2023-01-10T05:27:25.641Z,953.15
2023-01-10T05:28:25.646Z,953.11
2023-01-10T05:29:25.620Z,953.09
2023-01-10T05:30:25.641Z,953.17
2023-01-10T05:31:25.656Z,953.23
2023-01-10T05:32:25.586Z,953.22
2023-01-10T05:33:25.563Z,953.19
2023-01-10T05:34:25.562Z,953.18
2023-01-10T05:35:25.572Z,953.19
2023-01-10T05:36:25.616Z,953.19
2023-01-10T05:37:25.513Z,953.24
2023-01-10T05:38:25.508Z,953.27
2023-01-10T05:39:25.514Z,953.31
2023-01-10T05:40:25.492Z,953.37
2023-01-10T05:41:25.512Z,953.34
2023-01-10T05:42:25.473Z,953.40
2023-01-10T05:43:25.438Z,953.46
2023-01-10T05:44:25.429Z,953.47
2023-01-10T05:45:25.415Z,953.52
2023-01-10T05:46:25.428Z,953.48
2023-01-10T05:47:25.408Z,953.53
2023-01-10T05:48:25.417Z,953.53
2023-01-10T05:49:25.362Z,953.53
2023-01-10T05:50:25.360Z,953.61
2023-01-10T05:51:25.359Z,953.64
2023-01-10T05:52:25.328Z,953.65
2023-01-10T05:53:25.304Z,953.68
2023-01-10T05:54:25.304Z,953.73
2023-01-10T05:55:25.300Z,953.73
2023-01-10T05:56:25.278Z,953.70
2023-01-10T05:57:25.255Z,953.71
2023-01-10T05:58:25.244Z,953.73
2023-01-10T05:59:28.731Z,953.74
2023-01-10T06:00:25.272Z,953.77
2023-01-10T06:01:25.236Z,953.79
2023-01-10T06:02:25.295Z,953.73
2023-01-10T06:03:25.203Z,953.71
2023-01-10T06:04:25.204Z,953.77
2023-01-10T06:05:25.157Z,953.79
2023-01-10T06:06:25.159Z,953.78
2023-01-10T06:07:25.118Z,953.76
2023-01-10T06:08:25.119Z,953.78
2023-01-10T06:09:25.128Z,953.79
2023-01-10T06:10:27.007Z,953.84
2023-01-10T06:11:25.063Z,953.83
2023-01-10T06:12:25.070Z,953.86
2023-01-10T06:13:25.044Z,953.89
2023-01-10T06:14:25.065Z,953.97
2023-01-10T06:15:25.023Z,953.91
2023-01-10T06:16:25.073Z,953.97
2023-01-10T06:17:24.988Z,954.01
2023-01-10T06:18:24.987Z,953.96
2023-01-10T06:19:24.960Z,953.89
2023-01-10T06:20:24.997Z,953.96
2023-01-10T06:21:24.958Z,953.98
2023-01-10T06:22:24.955Z,954.02
2023-01-10T06:23:24.913Z,954.02
2023-01-10T06:24:24.911Z,954.08
2023-01-10T06:25:24.918Z,954.00
2023-01-10T06:26:24.888Z,953.99
2023-01-10T06:27:24.865Z,954.08
2023-01-10T06:28:24.847Z,954.13
2023-01-10T06:29:24.971Z,954.16
2023-01-10T06:30:24.872Z,954.19
2023-01-10T06:31:24.852Z,954.30
2023-01-10T06:32:24.835Z,954.34
2023-01-10T06:33:24.789Z,954.36
2023-01-10T06:34:24.764Z,954.28
2023-01-10T06:35:24.788Z,954.24
2023-01-10T06:36:24.753Z,954.36
2023-01-10T06:37:24.731Z,954.37
2023-01-10T06:38:24.730Z,954.36
2023-01-10T06:39:24.716Z,954.39
2023-01-10T06:40:24.711Z,954.38
2023-01-10T06:41:24.699Z,954.41
2023-01-10T06:42:24.670Z,954.43
2023-01-10T06:43:26.013Z,954.44
2023-01-10T06:44:24.645Z,954.46
2023-01-10T06:45:24.621Z,954.54
2023-01-10T06:46:24.713Z,954.58
2023-01-10T06:47:24.625Z,954.61
2023-01-10T06:48:24.593Z,954.62
2023-01-10T06:49:24.567Z,954.67
2023-01-10T06:50:24.585Z,954.68
2023-01-10T06:51:24.565Z,954.71
2023-01-10T06:52:24.528Z,954.77
2023-01-10T06:53:24.531Z,954.79
2023-01-10T06:54:24.516Z,954.90
2023-01-10T06:55:24.484Z,954.93
2023-01-10T06:56:24.514Z,954.97
2023-01-10T06:57:24.470Z,954.91
2023-01-10T06:58:24.487Z,954.88
2023-01-10T06:59:24.451Z,954.83
2023-01-10T07:00:24.435Z,954.94
2023-01-10T07:01:24.557Z,954.95
2023-01-10T07:02:24.547Z,954.98
2023-01-10T07:03:24.420Z,955.02
2023-01-10T07:04:24.397Z,954.98
2023-01-10T07:05:24.366Z,954.99
2023-01-10T07:06:24.348Z,955.03
2023-01-10T07:07:24.362Z,955.05
2023-01-10T07:08:24.349Z,955.09
2023-01-10T07:09:24.325Z,955.17
2023-01-10T07:10:24.291Z,955.08
2023-01-10T07:11:24.307Z,955.10
2023-01-10T07:12:24.276Z,955.06
2023-01-10T07:13:24.251Z,955.09
2023-01-10T07:14:24.284Z,955.21
2023-01-10T07:15:24.230Z,955.24
2023-01-10T07:16:24.314Z,955.27
2023-01-10T07:17:24.224Z,955.29
2023-01-10T07:18:24.225Z,955.25
2023-01-10T07:19:24.176Z,955.24
2023-01-10T07:20:24.175Z,955.25
2023-01-10T07:21:24.181Z,955.27
2023-01-10T07:22:24.155Z,955.34
2023-01-10T07:23:24.119Z,955.35
2023-01-10T07:24:24.137Z,955.34
2023-01-10T07:25:24.190Z,955.33
2023-01-10T07:26:24.082Z,955.33
2023-01-10T07:27:24.067Z,955.43
2023-01-10T07:28:24.089Z,955.44
2023-01-10T07:29:24.033Z,955.50
2023-01-10T07:30:25.385Z,955.51
2023-01-10T07:31:24.066Z,955.56
2023-01-10T07:32:24.040Z,955.57
2023-01-10T07:33:24.016Z,955.63
2023-01-10T07:34:23.988Z,955.65
2023-01-10T07:35:23.953Z,955.69
2023-01-10T07:36:23.963Z,955.71
2023-01-10T07:37:23.935Z,955.70
2023-01-10T07:38:23.932Z,955.67
2023-01-10T07:39:23.935Z,955.65
2023-01-10T07:40:23.917Z,955.67
2023-01-10T07:41:23.884Z,955.69
2023-01-10T07:42:23.878Z,955.74
2023-01-10T07:43:23.848Z,955.71
2023-01-10T07:44:23.865Z,955.73
2023-01-10T07:45:23.821Z,955.71
2023-01-10T07:46:23.929Z,955.72
2023-01-10T07:47:23.798Z,955.70
2023-01-10T07:48:23.827Z,955.73
2023-01-10T07:49:23.812Z,955.73
2023-01-10T07:50:23.776Z,955.82
2023-01-10T07:51:23.771Z,955.85
2023-01-10T07:52:23.753Z,955.86
2023-01-10T07:53:23.730Z,955.87
2023-01-10T07:54:23.713Z,955.93
2023-01-10T07:55:23.699Z,955.96
2023-01-10T07:56:23.726Z,955.94
2023-01-10T07:57:23.723Z,955.96
2023-01-10T07:58:23.676Z,955.95
2023-01-10T07:59:23.649Z,956.04
2023-01-10T08:00:23.647Z,956.04
2023-01-10T08:01:23.680Z,956.11
2023-01-10T08:02:23.835Z,956.12
2023-01-10T08:03:23.674Z,956.14
2023-01-10T08:04:23.611Z,956.18
2023-01-10T08:05:23.583Z,956.11
2023-01-10T08:06:23.551Z,956.18
2023-01-10T08:07:23.562Z,956.19
2023-01-10T08:08:23.558Z,956.27
2023-01-10T08:09:23.510Z,956.30
2023-01-10T08:10:23.505Z,956.22
2023-01-10T08:11:23.485Z,956.25
2023-01-10T08:12:23.482Z,956.28
2023-01-10T08:13:23.510Z,956.24
2023-01-10T08:14:23.469Z,956.31
2023-01-10T08:15:23.506Z,956.35
2023-01-10T08:16:23.494Z,956.34
2023-01-10T08:17:23.476Z,956.27
2023-01-10T08:18:23.426Z,956.32
2023-01-10T08:19:23.466Z,956.38
2023-01-10T08:20:23.370Z,956.40
2023-01-10T08:21:23.363Z,956.45
2023-01-10T08:22:23.344Z,956.43
2023-01-10T08:23:23.382Z,956.43
2023-01-10T08:24:23.325Z,956.42
2023-01-10T08:25:23.357Z,956.51
2023-01-10T08:26:23.451Z,956.55
2023-01-10T08:27:23.314Z,956.59
2023-01-10T08:28:23.267Z,956.64
2023-01-10T08:29:23.361Z,956.61
2023-01-10T08:30:23.278Z,956.68
2023-01-10T08:31:23.284Z,956.64
2023-01-10T08:32:23.212Z,956.64
2023-01-10T08:33:23.209Z,956.67
2023-01-10T08:34:23.176Z,956.78
2023-01-10T08:35:23.205Z,956.75
2023-01-10T08:36:23.160Z,956.76
2023-01-10T08:37:23.166Z,956.82
2023-01-10T08:38:23.133Z,956.82
2023-01-10T08:39:23.144Z,956.79
2023-01-10T08:40:23.181Z,956.81
2023-01-10T08:41:23.099Z,956.82
2023-01-10T08:42:23.090Z,956.80
2023-01-10T08:43:23.072Z,956.80
2023-01-10T08:44:23.084Z,956.89
2023-01-10T08:45:23.063Z,956.93
2023-01-10T08:46:23.152Z,956.92
2023-01-10T08:47:23.031Z,956.94
2023-01-10T08:48:22.997Z,957.06
2023-01-10T08:49:23.025Z,957.13
2023-01-10T08:50:23.040Z,957.18
2023-01-10T08:51:22.982Z,957.21
2023-01-10T08:52:22.951Z,957.26
2023-01-10T08:53:22.962Z,957.31
2023-01-10T08:54:22.946Z,957.27
2023-01-10T08:55:22.916Z,957.26
2023-01-10T08:56:22.893Z,957.29
2023-01-10T08:57:22.930Z,957.29
2023-01-10T08:58:22.878Z,957.26
2023-01-10T08:59:22.910Z,957.25
2023-01-10T09:00:22.984Z,957.26
2023-01-10T09:01:23.034Z,957.27
2023-01-10T09:02:22.968Z,957.26
2023-01-10T09:03:22.835Z,957.28
2023-01-10T09:04:22.807Z,957.30
2023-01-10T09:05:27.515Z,957.29
2023-01-10T09:06:22.763Z,957.42
2023-01-10T09:07:22.828Z,957.37
2023-01-10T09:08:22.730Z,957.41
2023-01-10T09:09:22.777Z,957.39
2023-01-10T09:10:22.723Z,957.41
2023-01-10T09:11:22.700Z,957.40
2023-01-10T09:12:22.702Z,957.41
2023-01-10T09:13:22.708Z,957.46
2023-01-10T09:14:22.659Z,957.50
2023-01-10T09:15:22.677Z,957.58
2023-01-10T09:16:22.675Z,957.60
2023-01-10T09:17:22.625Z,957.61
2023-01-10T09:18:22.601Z,957.66
2023-01-10T09:19:22.603Z,957.68
2023-01-10T09:20:22.610Z,957.63
2023-01-10T09:21:22.656Z,957.63
2023-01-10T09:22:22.581Z,957.68
2023-01-10T09:23:22.551Z,957.74
2023-01-10T09:24:22.528Z,957.72
2023-01-10T09:25:22.535Z,957.76
2023-01-10T09:26:22.523Z,957.62
2023-01-10T09:27:22.499Z,957.68
2023-01-10T09:28:22.559Z,957.69
2023-01-10T09:29:22.491Z,957.82
2023-01-10T09:30:22.484Z,957.86
2023-01-10T09:31:22.498Z,957.86
2023-01-10T09:32:22.432Z,957.89
2023-01-10T09:33:22.444Z,957.88
2023-01-10T09:34:22.413Z,957.87
2023-01-10T09:35:22.415Z,957.92
2023-01-10T09:36:22.379Z,957.93
2023-01-10T09:37:22.385Z,957.99
2023-01-10T09:38:22.342Z,957.99
2023-01-10T09:39:22.366Z,958.01
2023-01-10T09:40:22.311Z,957.99
2023-01-10T09:41:22.334Z,958.09
2023-01-10T09:42:22.288Z,958.12
2023-01-10T09:43:22.292Z,958.09
2023-01-10T09:44:22.294Z,958.12
2023-01-10T09:45:22.252Z,958.11
2023-01-10T09:46:22.274Z,958.14
2023-01-10T09:47:23.352Z,958.10
2023-01-10T09:48:22.209Z,958.05
2023-01-10T09:49:22.234Z,958.11
2023-01-10T09:50:22.180Z,958.15
2023-01-10T09:51:22.166Z,958.22
2023-01-10T09:52:22.181Z,958.09
2023-01-10T09:53:22.167Z,958.14
2023-01-10T09:54:22.132Z,958.12
2023-01-10T09:55:22.147Z,958.15
2023-01-10T09:56:22.098Z,958.15
2023-01-10T09:57:22.097Z,958.18
2023-01-10T09:58:22.080Z,958.17
2023-01-10T09:59:22.106Z,958.24
2023-01-10T10:00:22.076Z,958.26
2023-01-10T10:01:22.127Z,958.21
2023-01-10T10:02:22.023Z,958.25
2023-01-10T10:03:22.048Z,958.19
2023-01-10T10:04:22.143Z,958.16
2023-01-10T10:05:22.000Z,958.17
2023-01-10T10:06:21.975Z,958.19
2023-01-10T10:07:21.981Z,958.20
2023-01-10T10:08:21.974Z,958.26
2023-01-10T10:09:22.015Z,958.19
2023-01-10T10:10:21.926Z,958.21
2023-01-10T10:11:21.926Z,958.21
2023-01-10T10:12:21.897Z,958.24
2023-01-10T10:13:28.994Z,958.12
2023-01-10T10:14:21.918Z,958.13
2023-01-10T10:15:21.908Z,958.07
2023-01-10T10:16:21.938Z,958.12
2023-01-10T10:17:21.828Z,958.09
2023-01-10T10:18:21.806Z,958.08
2023-01-10T10:19:21.812Z,958.16
2023-01-10T10:20:21.797Z,958.14
2023-01-10T10:21:21.807Z,958.15
2023-01-10T10:22:21.774Z,958.13
2023-01-10T10:23:21.750Z,958.08
2023-01-10T10:24:21.728Z,958.10
2023-01-10T10:25:21.723Z,958.12
2023-01-10T10:26:21.731Z,958.14
2023-01-10T10:27:21.710Z,958.08
2023-01-10T10:28:21.680Z,958.11
2023-01-10T10:29:21.681Z,958.02
2023-01-10T10:30:21.666Z,958.06
2023-01-10T10:31:21.768Z,958.12
2023-01-10T10:32:21.628Z,958.10
2023-01-10T10:33:21.633Z,958.12
2023-01-10T10:34:21.619Z,958.12
2023-01-10T10:35:21.654Z,958.28
2023-01-10T10:36:21.597Z,958.29
2023-01-10T10:37:21.571Z,958.32
2023-01-10T10:38:21.545Z,958.28
2023-01-10T10:39:21.547Z,958.27
2023-01-10T10:40:21.608Z,958.27
2023-01-10T10:41:21.514Z,958.31
2023-01-10T10:42:21.495Z,958.31
2023-01-10T10:43:21.497Z,958.30
2023-01-10T10:44:21.458Z,958.28
2023-01-10T10:45:21.493Z,958.29
2023-01-10T10:46:21.441Z,958.34
2023-01-10T10:47:21.433Z,958.32
2023-01-10T10:48:21.423Z,958.34
2023-01-10T10:49:21.410Z,958.33
2023-01-10T10:50:21.419Z,958.37
2023-01-10T10:51:21.388Z,958.37
2023-01-10T10:52:21.362Z,958.42
2023-01-10T10:53:21.359Z,958.37
2023-01-10T10:54:21.347Z,958.40
2023-01-10T10:55:21.361Z,958.41
2023-01-10T10:56:21.310Z,958.42
2023-01-10T10:57:21.318Z,958.43
2023-01-10T10:58:21.319Z,958.51
2023-01-10T10:59:21.279Z,958.47
2023-01-10T11:00:21.288Z,958.48
2023-01-10T11:01:21.442Z,958.48
2023-01-10T11:02:21.249Z,958.54
2023-01-10T11:03:21.253Z,958.49
2023-01-10T11:04:21.238Z,958.51
2023-01-10T11:05:21.308Z,958.55
2023-01-10T11:06:21.183Z,958.50
2023-01-10T11:07:21.177Z,958.43
2023-01-10T11:08:21.216Z,958.57
2023-01-10T11:09:21.180Z,958.53
2023-01-10T11:10:21.126Z,958.54
2023-01-10T11:11:21.130Z,958.51
2023-01-10T11:12:21.094Z,958.48
2023-01-10T11:13:21.129Z,958.52
2023-01-10T11:14:21.082Z,958.50
2023-01-10T11:15:21.098Z,958.53
2023-01-10T11:16:21.128Z,958.54
2023-01-10T11:17:21.045Z,958.56
2023-01-10T11:18:21.054Z,958.53
2023-01-10T11:19:21.019Z,958.56
2023-01-10T11:20:21.033Z,958.59
2023-01-10T11:21:22.477Z,958.63
2023-01-10T11:22:20.980Z,958.67
2023-01-10T11:23:20.996Z,958.71
2023-01-10T11:24:20.948Z,958.66
2023-01-10T11:25:21.096Z,958.64
2023-01-10T11:26:20.911Z,958.64
2023-01-10T11:27:20.936Z,958.61
2023-01-10T11:28:20.896Z,958.63
2023-01-10T11:29:20.894Z,958.65
2023-01-10T11:30:20.874Z,958.70
2023-01-10T11:31:20.953Z,958.66
2023-01-10T11:32:20.888Z,958.65
2023-01-10T11:33:20.847Z,958.67
2023-01-10T11:34:20.814Z,958.63
2023-01-10T11:35:21.001Z,958.57
2023-01-10T11:36:20.809Z,958.58
2023-01-10T11:37:20.785Z,958.62
2023-01-10T11:38:20.755Z,958.66
2023-01-10T11:39:20.786Z,958.68
2023-01-10T11:40:20.724Z,958.63
2023-01-10T11:41:20.767Z,958.69
2023-01-10T11:42:20.708Z,958.63
2023-01-10T11:43:20.721Z,958.66
2023-01-10T11:44:20.679Z,958.72
2023-01-10T11:45:20.821Z,958.68
2023-01-10T11:46:20.711Z,958.67
2023-01-10T11:47:20.645Z,958.64
2023-01-10T11:48:21.409Z,958.63
2023-01-10T11:49:20.657Z,958.62
2023-01-10T11:50:20.599Z,958.59
2023-01-10T11:51:20.632Z,958.64
2023-01-10T11:52:20.578Z,958.66
2023-01-10T11:53:20.567Z,958.66
2023-01-10T11:54:20.547Z,958.63
2023-01-10T11:55:20.540Z,958.62
2023-01-10T11:56:20.542Z,958.65
2023-01-10T11:57:20.525Z,958.69
2023-01-10T11:58:20.498Z,958.71
2023-01-10T11:59:20.516Z,958.72
2023-01-10T12:00:20.483Z,958.74
2023-01-10T12:01:20.542Z,958.74
2023-01-10T12:02:20.500Z,958.72
2023-01-10T12:03:20.474Z,958.71
2023-01-10T12:04:20.410Z,958.67
2023-01-10T12:05:20.535Z,958.68
2023-01-10T12:06:20.383Z,958.67
2023-01-10T12:07:20.381Z,958.71
2023-01-10T12:08:20.528Z,958.73
2023-01-10T12:09:20.389Z,958.70
2023-01-10T12:10:21.160Z,958.69
2023-01-10T12:11:20.361Z,958.68
2023-01-10T12:12:20.347Z,958.70
2023-01-10T12:13:20.340Z,958.70
2023-01-10T12:14:20.292Z,958.72
2023-01-10T12:15:20.334Z,958.73
2023-01-10T12:16:20.311Z,958.75
2023-01-10T12:17:20.248Z,958.79
2023-01-10T12:18:20.233Z,958.81
2023-01-10T12:19:20.229Z,958.81
2023-01-10T12:20:20.225Z,958.81
2023-01-10T12:21:20.203Z,958.83
2023-01-10T12:22:20.208Z,958.83
2023-01-10T12:23:20.165Z,958.77
2023-01-10T12:24:20.160Z,958.71
2023-01-10T12:25:20.167Z,958.72
2023-01-10T12:26:20.136Z,958.77
2023-01-10T12:27:20.108Z,958.84
2023-01-10T12:28:20.150Z,958.74